Flight Track Log - Related Links

Times and Time Zones

All times are in EDT time to prevent confusion due to time zone crossing. See the EJA221 flight status page for this flight to view local times or setup timezone preferences in your user account.

Time Position Orientation Groundspeed Altitude Reporting Facility
EDT Latitude Longitude Course Direction KTS MPH feet Rate Location/Type
Sat 16:53:11 42.1458 -72.7061 134° Southeast 153 176 1,300  Level Boston Center
Sat 16:54:18 42.1042 -72.6472 134° Southeast 222 255 5,400 3,699 Climbing Boston Center
Sat 16:54:24 42.1000 -72.6386 123° Southeast 251 289 5,800 4,333 Climbing Boston Center
Sat 16:55:12 42.0522 -72.6667 204° Southwest 248 285 9,300 3,700 Climbing Boston Center
Sat 16:55:24 42.0542 -72.6806 281° West 260 299 9,500 689 Climbing Boston Center
Sat 16:56:13 42.0664 -72.7811 279° West 378 435 10,000 484 Climbing Boston Center
Sat 16:56:26 42.0706 -72.8036 284° West 382 440 10,000  Level Boston Center
Sat 16:57:23 42.0992 -72.9522 285° West 427 491 10,000 51 Level Boston Center
Sat 16:58:24 42.1236 -73.0811 284° West 422 486 10,100 49 Climbing Boston Center
Sat 16:59:25 42.1286 -73.2436 272° West 402 463 10,100 -101 Level Boston Center
Sat 17:00:23 42.1194 -73.3722 265° West 397 457 9,900 -46 Descending Boston Center
Sat 17:01:36 42.1078 -73.5147 264° West 397 457 10,000  Climbing Boston Center
Sat 17:02:37 42.0953 -73.6964 265° West 385 443 9,900  Descending Boston Center
Sat 17:03:37 42.0878 -73.8081 265° West 380 437 10,000  Climbing Boston Center
Sat 17:04:35 42.0731 -73.9783 263° West 386 444 9,900 -101 Descending Boston Center
Sat 17:05:36 42.0650 -74.1069 265° West 392 451 9,800 49 Descending Boston Center
Sat 17:06:37 42.0025 -74.2392 238° Southwest 371 427 10,000 101 Climbing Boston Center
Sat 17:07:35 41.9203 -74.3039 210° Southwest 364 419 10,000  Level Boston Center
Sat 17:08:36 41.8231 -74.3875 213° Southwest 379 436 10,000 -393 Level Boston Center
Sat 17:09:37 41.7447 -74.4517 211° Southwest 385 443 9,200 -992 Descending Boston Center
Sat 17:10:37 41.6875 -74.5000 212° Southwest 315 362 8,000 -1,289 Descending Boston Center
Sat 17:11:38 41.6219 -74.5506 210° Southwest 259 298 6,600 -1,017 Descending Boston Center
Sat 17:12:35 41.5508 -74.5650 189° South 233 268 6,000 -293 Descending Boston Center
Sat 17:15:03 41.3833 -74.5833 185° South 244 281 5,600 -260 Descending New York TRACON
Sat 17:16:03 41.3167 -74.5333 151° Southeast 248 285 5,100 -526 Descending New York TRACON
Sat 17:16:57 41.2667 -74.5000 153° Southeast 249 287 4,600 -500 Descending New York TRACON
Sat 17:18:03 41.2000 -74.4500 151° Southeast 249 287 4,100 -600 Descending New York TRACON
Sat 17:18:57 41.1500 -74.4167 153° Southeast 242 278 3,400 -500 Descending New York TRACON
Sat 17:20:03 41.0833 -74.3833 159° South 221 254 3,100 -150 Descending New York TRACON
Sat 17:20:57 41.0333 -74.3500 153° Southeast 191 220 3,100 -350 Level New York TRACON
Sat 17:22:03 40.9833 -74.3167 153° Southeast 193 222 2,400 -500 Descending New York TRACON
Sat 17:22:57 40.9333 -74.3167 180° South 182 209 2,100 -150 Descending New York TRACON
Sat 17:24:03 40.8833 -74.3333 194° South 159 183 2,100 -300 Level New York TRACON
Sat 17:24:57 40.8500 -74.3667 217° Southwest 151 174 1,500 -579 Descending New York TRACON
Sat 17:25:57 40.8333 -74.3833 217° Southwest 124 143 1,000 -500 Descending New York TRACON
Sat 17:27:00 40.7993 -74.4149 184° South  Level Estimated
Sat 17:34:00 40.7993 -74.4149 184° South  Level Estimated
Sat 17:35:00 40.7993 -74.4149 184° South  Level Estimated
Sat 17:36:00 40.7993 -74.4149 184° South  Level Estimated
Sat 17:37:00 40.7993 -74.4149 184° South  Level Estimated

Login

Don't have an account? Register now (free) for customized features, flight alerts, and more!